createdAt,value
2017-01-25T00:00:43.062Z,44.14
2017-01-25T00:01:43.092Z,44.43
2017-01-25T00:02:42.715Z,43.95
2017-01-25T00:03:42.997Z,44.05
2017-01-25T00:04:43.170Z,44.05
2017-01-25T00:05:42.798Z,43.76
2017-01-25T00:06:43.223Z,43.76
2017-01-25T00:07:43.244Z,43.47
2017-01-25T00:08:43.124Z,43.66
2017-01-25T00:09:42.901Z,43.57
2017-01-25T00:10:43.323Z,43.66
2017-01-25T00:11:42.954Z,44.05
2017-01-25T00:12:42.979Z,43.85
2017-01-25T00:13:43.261Z,43.95
2017-01-25T00:14:43.425Z,43.84
2017-01-25T00:15:43.057Z,43.95
2017-01-25T00:16:43.082Z,43.85
2017-01-25T00:17:43.503Z,43.64
2017-01-25T00:18:43.387Z,43.54
2017-01-25T00:19:43.552Z,43.76
2017-01-25T00:20:43.189Z,43.26
2017-01-25T00:21:43.213Z,43.16
2017-01-25T00:22:43.631Z,43.07
2017-01-25T00:23:43.512Z,42.77
2017-01-25T00:24:43.289Z,43.07
2017-01-25T00:25:43.713Z,43.07
2017-01-25T00:26:43.337Z,42.49
2017-01-25T00:27:43.762Z,42.58
2017-01-25T00:28:44.043Z,43.45
2017-01-25T00:29:43.816Z,42.58
2017-01-25T00:30:43.836Z,42.68
2017-01-25T00:31:43.469Z,42.68
2017-01-25T00:32:43.898Z,42.97
2017-01-25T00:33:44.174Z,42.68
2017-01-25T00:34:43.935Z,42.68
2017-01-25T00:35:43.574Z,42.77
2017-01-25T00:36:43.997Z,43.35
2017-01-25T00:37:43.626Z,43.35
2017-01-25T00:38:43.899Z,42.58
2017-01-25T00:39:44.075Z,43.35
2017-01-25T00:40:44.096Z,42.58
2017-01-25T00:41:44.145Z,42.58
2017-01-25T00:42:44.144Z,43.07
2017-01-25T00:43:44.174Z,42.58
2017-01-25T00:44:43.802Z,42.68
2017-01-25T00:45:43.827Z,43.54
2017-01-25T00:46:44.252Z,42.77
2017-01-25T00:47:43.902Z,42.87
2017-01-25T00:48:43.910Z,42.87
2017-01-25T00:49:43.930Z,42.87
2017-01-25T00:50:44.355Z,42.97
2017-01-25T00:51:44.376Z,42.68
2017-01-25T00:52:44.004Z,42.87
2017-01-25T00:53:44.039Z,42.68
2017-01-25T00:54:44.454Z,43.07
2017-01-25T00:55:44.083Z,43.16
2017-01-25T00:56:44.114Z,43.16
2017-01-25T00:57:44.536Z,43.16
2017-01-25T00:58:44.165Z,43.16
2017-01-25T00:59:44.837Z,43.16
2017-01-25T01:00:44.610Z,42.37
2017-01-25T01:01:44.635Z,42.47
2017-01-25T01:02:44.660Z,42.49
2017-01-25T01:03:44.688Z,42.39
2017-01-25T01:04:44.960Z,42.49
2017-01-25T01:05:44.334Z,42.56
2017-01-25T01:06:44.367Z,42.1
2017-01-25T01:07:44.396Z,42.1
2017-01-25T01:08:44.421Z,42.18
2017-01-25T01:09:44.700Z,41.82
2017-01-25T01:10:44.866Z,42.08
2017-01-25T01:11:44.891Z,42.2
2017-01-25T01:12:44.921Z,41.99
2017-01-25T01:13:44.944Z,41.99
2017-01-25T01:14:45.224Z,41.99
2017-01-25T01:15:44.597Z,41.99
2017-01-25T01:16:44.622Z,41.99
2017-01-25T01:17:45.046Z,42.27
2017-01-25T01:18:45.073Z,42.37
2017-01-25T01:19:45.096Z,42.18
2017-01-25T01:20:44.726Z,42.27
2017-01-25T01:21:44.751Z,42.27
2017-01-25T01:22:44.779Z,42.08
2017-01-25T01:23:45.199Z,41.89
2017-01-25T01:24:45.216Z,42.18
2017-01-25T01:25:44.852Z,42.27
2017-01-25T01:26:44.878Z,42.37
2017-01-25T01:27:44.945Z,41.7
2017-01-25T01:28:44.931Z,41.89
2017-01-25T01:29:45.352Z,41.7
2017-01-25T01:30:44.977Z,41.6
2017-01-25T01:31:45.002Z,41.7
2017-01-25T01:32:45.426Z,41.7
2017-01-25T01:33:45.455Z,41.99
2017-01-25T01:34:45.082Z,41.89
2017-01-25T01:35:45.504Z,41.99
2017-01-25T01:36:45.132Z,42.08
2017-01-25T01:37:45.158Z,41.99
2017-01-25T01:38:45.181Z,42.18
2017-01-25T01:39:45.607Z,41.89
2017-01-25T01:40:45.231Z,41.89
2017-01-25T01:41:45.281Z,41.89
2017-01-25T01:42:45.680Z,41.99
2017-01-25T01:43:45.312Z,41.89
2017-01-25T01:44:45.343Z,41.99
2017-01-25T01:45:45.359Z,41.79
2017-01-25T01:46:45.784Z,41.79
2017-01-25T01:47:45.408Z,41.5
2017-01-25T01:48:45.825Z,41.7
2017-01-25T01:49:45.854Z,41.31
2017-01-25T01:50:45.738Z,41.31
2017-01-25T01:51:45.516Z,41.31
2017-01-25T01:52:45.536Z,41.22
2017-01-25T01:53:45.957Z,41.7
2017-01-25T01:54:45.997Z,41.41
2017-01-25T01:55:45.862Z,41.41
2017-01-25T01:56:45.640Z,41.41
2017-01-25T01:57:45.672Z,41.41
2017-01-25T01:58:46.085Z,41.41
2017-01-25T01:59:45.717Z,41.12
2017-01-25T02:00:45.986Z,41.22
2017-01-25T02:01:45.761Z,41.22
2017-01-25T02:02:46.185Z,41.31
2017-01-25T02:03:45.824Z,41.31
2017-01-25T02:04:46.237Z,41.31
2017-01-25T02:05:46.517Z,40.73
2017-01-25T02:06:46.283Z,41.12
2017-01-25T02:07:45.919Z,41.5
2017-01-25T02:08:46.364Z,40.83
2017-01-25T02:09:45.965Z,40.73
2017-01-25T02:10:46.245Z,40.55
2017-01-25T02:11:46.023Z,41.02
2017-01-25T02:12:46.443Z,40.93
2017-01-25T02:13:46.464Z,40.93
2017-01-25T02:14:46.492Z,40.93
2017-01-25T02:15:46.372Z,40.83
2017-01-25T02:16:46.538Z,40.73
2017-01-25T02:17:46.174Z,40.73
2017-01-25T02:18:46.199Z,40.93
2017-01-25T02:19:46.646Z,40.73
2017-01-25T02:20:46.945Z,41
2017-01-25T02:21:46.274Z,40.72
2017-01-25T02:22:46.301Z,40.93
2017-01-25T02:23:46.720Z,40.81
2017-01-25T02:24:46.752Z,40.81
2017-01-25T02:25:47.025Z,40.52
2017-01-25T02:26:46.391Z,40.81
2017-01-25T02:27:46.427Z,40.72
2017-01-25T02:28:46.451Z,40.33
2017-01-25T02:29:46.872Z,40.83
2017-01-25T02:30:46.496Z,40.35
2017-01-25T02:31:46.528Z,40.81
2017-01-25T02:32:46.550Z,40.91
2017-01-25T02:33:46.970Z,40.62
2017-01-25T02:34:47.000Z,40.91
2017-01-25T02:35:46.623Z,40.14
2017-01-25T02:36:46.653Z,40.23
2017-01-25T02:37:46.680Z,40.52
2017-01-25T02:38:46.706Z,39.95
2017-01-25T02:39:46.731Z,40.23
2017-01-25T02:40:46.756Z,40.52
2017-01-25T02:41:47.190Z,40.52
2017-01-25T02:42:47.201Z,40.52
2017-01-25T02:43:46.822Z,40.52
2017-01-25T02:44:47.243Z,40.62
2017-01-25T02:45:47.275Z,40.23
2017-01-25T02:46:47.300Z,40.43
2017-01-25T02:47:47.362Z,40.62
2017-01-25T02:48:47.354Z,39.85
2017-01-25T02:49:46.978Z,39.85
2017-01-25T02:50:47.003Z,40.52
2017-01-25T02:51:47.032Z,40.05
2017-01-25T02:52:47.453Z,39.95
2017-01-25T02:53:47.081Z,40.05
2017-01-25T02:54:47.497Z,39.85
2017-01-25T02:55:47.136Z,40.23
2017-01-25T02:56:47.159Z,39.85
2017-01-25T02:57:47.180Z,40.05
2017-01-25T02:58:47.605Z,39.85
2017-01-25T02:59:47.634Z,39.85
2017-01-25T03:00:47.255Z,39.85
2017-01-25T03:01:47.283Z,39.95
2017-01-25T03:02:47.307Z,40.05
2017-01-25T03:03:47.729Z,39.85
2017-01-25T03:04:47.357Z,39.85
2017-01-25T03:05:47.382Z,39.85
2017-01-25T03:06:47.406Z,40.05
2017-01-25T03:07:47.831Z,39.47
2017-01-25T03:08:47.459Z,40.14
2017-01-25T03:09:47.480Z,40.05
2017-01-25T03:10:47.902Z,40.05
2017-01-25T03:11:48.186Z,39.56
2017-01-25T03:12:47.955Z,39.66
2017-01-25T03:13:47.976Z,39.85
2017-01-25T03:14:48.013Z,39.95
2017-01-25T03:15:47.635Z,39.66
2017-01-25T03:16:47.913Z,39.95
2017-01-25T03:17:48.079Z,39.66
2017-01-25T03:18:47.713Z,39.37
2017-01-25T03:19:47.732Z,39.66
2017-01-25T03:20:48.161Z,39.66
2017-01-25T03:21:48.451Z,39.85
2017-01-25T03:22:47.826Z,39.85
2017-01-25T03:23:48.236Z,39.76
2017-01-25T03:24:48.252Z,39.85
2017-01-25T03:25:48.273Z,39.66
2017-01-25T03:26:48.154Z,39.85
2017-01-25T03:27:47.934Z,39.76
2017-01-25T03:28:48.354Z,39.76
2017-01-25T03:29:48.380Z,39.76
2017-01-25T03:30:48.009Z,39.95
2017-01-25T03:31:48.289Z,39.85
2017-01-25T03:32:48.062Z,40.02
2017-01-25T03:33:48.082Z,39.85
2017-01-25T03:34:48.498Z,39.95
2017-01-25T03:35:48.136Z,39.54
2017-01-25T03:36:48.407Z,39.64
2017-01-25T03:37:48.185Z,40.05
2017-01-25T03:38:48.606Z,39.47
2017-01-25T03:39:48.233Z,39.95
2017-01-25T03:40:48.264Z,39.54
2017-01-25T03:41:48.958Z,38.99
2017-01-25T03:42:48.709Z,39.35
2017-01-25T03:43:48.734Z,39.47
2017-01-25T03:44:48.758Z,39.37
2017-01-25T03:45:48.387Z,39.45
2017-01-25T03:46:49.058Z,39.35
2017-01-25T03:47:48.441Z,39.35
2017-01-25T03:48:48.466Z,38.96
2017-01-25T03:49:48.882Z,39.35
2017-01-25T03:50:48.507Z,39.26
2017-01-25T03:51:48.537Z,39.26
2017-01-25T03:52:48.957Z,39.35
2017-01-25T03:53:48.581Z,39.16
2017-01-25T03:54:49.005Z,39.16
2017-01-25T03:55:48.634Z,38.96
2017-01-25T03:56:48.659Z,39.35
2017-01-25T03:57:48.680Z,39.26
2017-01-25T03:58:48.715Z,39.16
2017-01-25T03:59:49.130Z,39.16
2017-01-25T04:00:49.627Z,39.26
2017-01-25T04:01:48.788Z,39.06
2017-01-25T04:02:49.212Z,39.54
2017-01-25T04:03:49.232Z,39.16
2017-01-25T04:04:48.861Z,39.16
2017-01-25T04:05:49.278Z,39.35
2017-01-25T04:06:49.307Z,39.26
2017-01-25T04:07:49.336Z,38.78
2017-01-25T04:08:48.960Z,38.87
2017-01-25T04:09:49.385Z,38.78
2017-01-25T04:10:49.010Z,38.96
2017-01-25T04:11:49.034Z,38.49
2017-01-25T04:12:49.067Z,38.59
2017-01-25T04:13:49.479Z,38.59
2017-01-25T04:14:49.113Z,38.49
2017-01-25T04:15:49.137Z,38.68
2017-01-25T04:16:49.554Z,38.49
2017-01-25T04:17:49.583Z,38.87
2017-01-25T04:18:49.255Z,38.68
2017-01-25T04:19:49.629Z,38.49
2017-01-25T04:20:49.260Z,38.59
2017-01-25T04:21:49.285Z,38.96
2017-01-25T04:22:49.307Z,38.87
2017-01-25T04:23:49.335Z,38.87
2017-01-25T04:24:49.360Z,38.49
2017-01-25T04:25:49.784Z,38.59
2017-01-25T04:26:49.795Z,38.59
2017-01-25T04:27:49.433Z,38.68
2017-01-25T04:28:49.855Z,38.68
2017-01-25T04:29:49.481Z,38.78
2017-01-25T04:30:49.900Z,38.49
2017-01-25T04:31:49.929Z,38.78
2017-01-25T04:32:49.553Z,38.96
2017-01-25T04:33:49.978Z,38.39
2017-01-25T04:34:50.003Z,38.78
2017-01-25T04:35:50.027Z,38.96
2017-01-25T04:36:49.652Z,38.78
2017-01-25T04:37:49.938Z,38.29
2017-01-25T04:38:50.105Z,38.96
2017-01-25T04:39:49.730Z,38.49
2017-01-25T04:40:50.156Z,39.16
2017-01-25T04:41:50.175Z,39.16
2017-01-25T04:42:50.306Z,39.16
2017-01-25T04:43:49.834Z,39.06
2017-01-25T04:44:49.866Z,39.16
2017-01-25T04:45:49.880Z,38.59
2017-01-25T04:46:49.903Z,38.78
2017-01-25T04:47:50.579Z,38.49
2017-01-25T04:48:49.952Z,38.78
2017-01-25T04:49:50.372Z,38.39
2017-01-25T04:50:50.403Z,38.39
2017-01-25T04:51:50.454Z,38.39
2017-01-25T04:52:50.705Z,38.59
2017-01-25T04:53:50.500Z,39.16
2017-01-25T04:54:50.108Z,38.49
2017-01-25T04:55:50.523Z,38.59
2017-01-25T04:56:50.158Z,38.87
2017-01-25T04:57:50.180Z,38.78
2017-01-25T04:58:50.609Z,38.78
2017-01-25T04:59:50.621Z,38.49
2017-01-25T05:00:50.254Z,38.29
2017-01-25T05:01:50.274Z,38.49
2017-01-25T05:02:50.700Z,38.78
2017-01-25T05:03:50.724Z,38.01
2017-01-25T05:04:50.756Z,38.2
2017-01-25T05:05:50.772Z,38.28
2017-01-25T05:06:50.811Z,38.78
2017-01-25T05:07:50.420Z,38.2
2017-01-25T05:08:50.847Z,38.39
2017-01-25T05:09:50.872Z,38.29
2017-01-25T05:10:50.897Z,38.29
2017-01-25T05:11:50.526Z,38.2
2017-01-25T05:12:50.943Z,37.89
2017-01-25T05:13:50.579Z,37.72
2017-01-25T05:14:50.607Z,37.72
2017-01-25T05:15:51.021Z,38.01
2017-01-25T05:16:50.651Z,38.18
2017-01-25T05:17:51.067Z,38.2
2017-01-25T05:18:51.089Z,38.18
2017-01-25T05:19:50.731Z,38.01
2017-01-25T05:20:50.748Z,37.7
2017-01-25T05:21:51.169Z,37.7
2017-01-25T05:22:50.785Z,37.51
2017-01-25T05:23:50.826Z,37.82
2017-01-25T05:24:50.843Z,37.7
2017-01-25T05:25:50.868Z,38.2
2017-01-25T05:26:50.897Z,37.99
2017-01-25T05:27:50.919Z,37.82
2017-01-25T05:28:50.947Z,37.91
2017-01-25T05:29:50.971Z,37.6
2017-01-25T05:30:50.996Z,37.53
2017-01-25T05:31:51.418Z,37.05
2017-01-25T05:32:51.041Z,37.03
2017-01-25T05:33:51.066Z,36.86
2017-01-25T05:34:51.490Z,37.15
2017-01-25T05:35:51.119Z,37.24
2017-01-25T05:36:51.143Z,37.43
2017-01-25T05:37:51.563Z,37.15
2017-01-25T05:38:51.592Z,37.05
2017-01-25T05:39:51.213Z,37.05
2017-01-25T05:40:51.262Z,37.24
2017-01-25T05:41:51.262Z,37.15
2017-01-25T05:42:51.283Z,37.34
2017-01-25T05:43:51.960Z,37.34
2017-01-25T05:44:51.337Z,37.43
2017-01-25T05:45:51.362Z,36.86
2017-01-25T05:46:51.386Z,37.05
2017-01-25T05:47:51.810Z,37.05
2017-01-25T05:48:52.088Z,36.76
2017-01-25T05:49:51.464Z,36.86
2017-01-25T05:50:51.881Z,36.66
2017-01-25T05:51:51.514Z,36.57
2017-01-25T05:52:51.538Z,36.38
2017-01-25T05:53:51.826Z,36.49
2017-01-25T05:54:51.587Z,36.49
2017-01-25T05:55:51.637Z,36.68
2017-01-25T05:56:51.637Z,36.58
2017-01-25T05:57:52.057Z,36.4
2017-01-25T05:58:51.942Z,36.3
2017-01-25T05:59:51.713Z,36.2
2017-01-25T06:00:51.740Z,36.2
2017-01-25T06:01:52.156Z,35.91
2017-01-25T06:02:52.186Z,35.91
2017-01-25T06:03:52.455Z,35.82
2017-01-25T06:04:52.235Z,36.2
2017-01-25T06:05:51.868Z,35.82
2017-01-25T06:06:51.900Z,35.82
2017-01-25T06:07:51.913Z,36.11
2017-01-25T06:08:52.202Z,35.72
2017-01-25T06:09:51.962Z,35.63
2017-01-25T06:10:52.384Z,35.72
2017-01-25T06:11:52.412Z,35.63
2017-01-25T06:12:52.432Z,35.63
2017-01-25T06:13:52.716Z,35.72
2017-01-25T06:14:52.086Z,35.53
2017-01-25T06:15:52.506Z,35.53
2017-01-25T06:16:52.531Z,35.63
2017-01-25T06:17:52.548Z,35.63
2017-01-25T06:18:52.582Z,35.63
2017-01-25T06:19:52.210Z,35.53
2017-01-25T06:20:52.231Z,35.34
2017-01-25T06:21:52.655Z,35.63
2017-01-25T06:22:52.684Z,35.63
2017-01-25T06:23:52.701Z,36.01
2017-01-25T06:24:52.726Z,36.2
2017-01-25T06:25:52.361Z,36.2
2017-01-25T06:26:52.791Z,35.91
2017-01-25T06:27:52.412Z,36.2
2017-01-25T06:28:52.439Z,36.3
2017-01-25T06:29:52.857Z,36.01
2017-01-25T06:30:52.879Z,36.4
2017-01-25T06:31:52.899Z,36.4
2017-01-25T06:32:52.935Z,36.58
2017-01-25T06:33:52.558Z,36.4
2017-01-25T06:34:52.833Z,36.4
2017-01-25T06:35:53.051Z,36.58
2017-01-25T06:36:52.673Z,36.4
2017-01-25T06:37:53.092Z,36.3
2017-01-25T06:38:52.717Z,36.58
2017-01-25T06:39:52.994Z,36.4
2017-01-25T06:40:52.770Z,36.41
2017-01-25T06:41:53.196Z,36.4
2017-01-25T06:42:53.219Z,36.49
2017-01-25T06:43:53.232Z,36.4
2017-01-25T06:44:53.486Z,36.41
2017-01-25T06:45:53.253Z,36.49
2017-01-25T06:46:53.275Z,36.49
2017-01-25T06:47:53.307Z,36.41
2017-01-25T06:48:53.331Z,36.49
2017-01-25T06:49:53.600Z,36.58
2017-01-25T06:50:53.381Z,36.41
2017-01-25T06:51:53.406Z,36.41
2017-01-25T06:52:53.039Z,36.49
2017-01-25T06:53:53.487Z,36.41
2017-01-25T06:54:53.340Z,36.32
2017-01-25T06:55:53.505Z,36.41
2017-01-25T06:56:53.134Z,36.51
2017-01-25T06:57:53.575Z,36.7
2017-01-25T06:58:53.580Z,36.6
2017-01-25T06:59:53.855Z,36.32
2017-01-25T07:00:53.632Z,36.7
2017-01-25T07:01:53.261Z,36.6
2017-01-25T07:02:53.283Z,36.6
2017-01-25T07:03:53.698Z,36.51
2017-01-25T07:04:53.339Z,36.6
2017-01-25T07:05:53.365Z,36.22
2017-01-25T07:06:53.786Z,36.7
2017-01-25T07:07:53.805Z,36.51
2017-01-25T07:08:53.439Z,36.51
2017-01-25T07:09:53.855Z,36.6
2017-01-25T07:10:53.881Z,36.6
2017-01-25T07:11:53.904Z,36.6
2017-01-25T07:12:53.537Z,36.7
2017-01-25T07:13:53.562Z,36.41
2017-01-25T07:14:53.587Z,36.41
2017-01-25T07:15:53.616Z,36.6
2017-01-25T07:16:54.037Z,36.7
2017-01-25T07:17:54.058Z,36.6
2017-01-25T07:18:53.686Z,36.7
2017-01-25T07:19:53.711Z,36.9
2017-01-25T07:20:54.389Z,36.9
2017-01-25T07:21:54.161Z,37.08
2017-01-25T07:22:54.186Z,36.51
2017-01-25T07:23:54.213Z,36.8
2017-01-25T07:24:53.842Z,36.32
2017-01-25T07:25:54.111Z,36.6
2017-01-25T07:26:53.888Z,36.6
2017-01-25T07:27:53.917Z,36.6
2017-01-25T07:28:54.338Z,36.6
2017-01-25T07:29:53.966Z,36.32
2017-01-25T07:30:54.240Z,36.51
2017-01-25T07:31:54.016Z,36.7
2017-01-25T07:32:54.442Z,36.22
2017-01-25T07:33:54.466Z,36.51
2017-01-25T07:34:54.486Z,36.6
2017-01-25T07:35:54.367Z,36.7
2017-01-25T07:36:54.140Z,36.51
2017-01-25T07:37:54.164Z,36.41
2017-01-25T07:38:54.189Z,36.7
2017-01-25T07:39:54.614Z,36.7
2017-01-25T07:40:54.891Z,36.41
2017-01-25T07:41:54.268Z,36.41
2017-01-25T07:42:54.689Z,36.51
2017-01-25T07:43:54.321Z,36.51
2017-01-25T07:44:54.740Z,36.41
2017-01-25T07:45:55.015Z,36.6
2017-01-25T07:46:54.796Z,36.13
2017-01-25T07:47:54.816Z,36.6
2017-01-25T07:48:54.844Z,36.7
2017-01-25T07:49:54.479Z,36.41
2017-01-25T07:50:55.138Z,36.32
2017-01-25T07:51:54.520Z,36.41
2017-01-25T07:52:54.940Z,36.41
2017-01-25T07:53:54.572Z,36.51
2017-01-25T07:54:54.594Z,36.51
2017-01-25T07:55:55.271Z,36.41
2017-01-25T07:56:55.039Z,36.51
2017-01-25T07:57:55.101Z,36.41
2017-01-25T07:58:55.089Z,36.41
2017-01-25T07:59:54.717Z,36.41
2017-01-25T08:00:55.005Z,36.51
2017-01-25T08:01:54.774Z,36.6
2017-01-25T08:02:55.196Z,36.51
2017-01-25T08:03:54.851Z,36.6
2017-01-25T08:04:54.842Z,36.51
2017-01-25T08:05:55.125Z,36.41
2017-01-25T08:06:54.890Z,36.4
2017-01-25T08:07:55.320Z,36.22
2017-01-25T08:08:55.345Z,36.2
2017-01-25T08:09:54.971Z,36.3
2017-01-25T08:10:55.249Z,36.3
2017-01-25T08:11:55.023Z,36.3
2017-01-25T08:12:55.442Z,36.3
2017-01-25T08:13:55.489Z,36.22
2017-01-25T08:14:55.096Z,36.3
2017-01-25T08:15:55.372Z,36.2
2017-01-25T08:16:55.549Z,36.4
2017-01-25T08:17:55.607Z,36.2
2017-01-25T08:18:55.595Z,36.13
2017-01-25T08:19:55.620Z,36.3
2017-01-25T08:20:55.500Z,36.3
2017-01-25T08:21:55.274Z,36.49
2017-01-25T08:22:55.693Z,36.58
2017-01-25T08:23:55.720Z,36.58
2017-01-25T08:24:55.746Z,36.2
2017-01-25T08:25:55.620Z,36.58
2017-01-25T08:26:55.396Z,36.4
2017-01-25T08:27:55.821Z,36.49
2017-01-25T08:28:55.450Z,36.58
2017-01-25T08:29:55.871Z,36.58
2017-01-25T08:30:55.751Z,36.4
2017-01-25T08:31:55.915Z,36.4
2017-01-25T08:32:55.551Z,36.4
2017-01-25T08:33:55.965Z,36.49
2017-01-25T08:34:55.601Z,36.01
2017-01-25T08:35:55.624Z,36.4
2017-01-25T08:36:56.043Z,36.11
2017-01-25T08:37:56.068Z,36.49
2017-01-25T08:38:55.700Z,36.49
2017-01-25T08:39:56.122Z,36.4
2017-01-25T08:40:56.147Z,36.68
2017-01-25T08:41:56.171Z,36.68
2017-01-25T08:42:56.191Z,36.2
2017-01-25T08:43:56.220Z,36.2
2017-01-25T08:44:55.845Z,36.49
2017-01-25T08:45:55.874Z,36.3
2017-01-25T08:46:56.147Z,36.58
2017-01-25T08:47:55.927Z,36.58
2017-01-25T08:48:55.948Z,36.68
2017-01-25T08:49:55.971Z,36.68
2017-01-25T08:50:56.388Z,36.49
2017-01-25T08:51:56.278Z,36.4
2017-01-25T08:52:56.447Z,36.49
2017-01-25T08:53:56.075Z,36.78
2017-01-25T08:54:56.101Z,36.49
2017-01-25T08:55:56.125Z,36.68
2017-01-25T08:56:56.794Z,36.58
2017-01-25T08:57:56.170Z,36.78
2017-01-25T08:58:56.598Z,36.68
2017-01-25T08:59:56.224Z,36.78
2017-01-25T09:00:56.248Z,36.78
2017-01-25T09:01:56.918Z,36.68
2017-01-25T09:02:56.690Z,36.58
2017-01-25T09:03:56.323Z,36.76
2017-01-25T09:04:56.744Z,36.88
2017-01-25T09:05:56.368Z,36.78
2017-01-25T09:06:56.650Z,37.05
2017-01-25T09:07:56.426Z,37.16
2017-01-25T09:08:56.451Z,37.07
2017-01-25T09:09:56.470Z,36.58
2017-01-25T09:10:56.889Z,36.68
2017-01-25T09:11:57.173Z,36.78
2017-01-25T09:12:56.550Z,36.68
2017-01-25T09:13:56.570Z,37.15
2017-01-25T09:14:56.594Z,36.95
2017-01-25T09:15:56.625Z,36.95
2017-01-25T09:16:56.896Z,36.86
2017-01-25T09:17:56.669Z,37.05
2017-01-25T09:18:57.094Z,36.86
2017-01-25T09:19:57.119Z,36.66
2017-01-25T09:20:57.148Z,36.57
2017-01-25T09:21:57.023Z,36.47
2017-01-25T09:22:57.193Z,37.15
2017-01-25T09:23:57.217Z,36.95
2017-01-25T09:24:56.846Z,36.86
2017-01-25T09:25:56.867Z,36.57
2017-01-25T09:26:56.896Z,36.76
2017-01-25T09:27:57.316Z,36.38
2017-01-25T09:28:57.341Z,36.66
2017-01-25T09:29:56.968Z,36.66
2017-01-25T09:30:57.395Z,36.86
2017-01-25T09:31:57.416Z,36.47
2017-01-25T09:32:57.444Z,36.38
2017-01-25T09:33:57.470Z,36.66
2017-01-25T09:34:57.494Z,36.66
2017-01-25T09:35:57.123Z,36.66
2017-01-25T09:36:57.144Z,36.47
2017-01-25T09:37:57.816Z,36.66
2017-01-25T09:38:57.593Z,36.57
2017-01-25T09:39:57.222Z,36.86
2017-01-25T09:40:57.238Z,36.57
2017-01-25T09:41:57.664Z,36.66
2017-01-25T09:42:57.940Z,36.47
2017-01-25T09:43:57.713Z,36.66
2017-01-25T09:44:57.345Z,36.66
2017-01-25T09:45:57.370Z,36.47
2017-01-25T09:46:57.813Z,36.76
2017-01-25T09:47:58.068Z,37.15
2017-01-25T09:48:57.441Z,36.57
2017-01-25T09:49:57.469Z,36.57
2017-01-25T09:50:57.498Z,37.05
2017-01-25T09:51:57.916Z,36.76
2017-01-25T09:52:57.791Z,36.76
2017-01-25T09:53:57.965Z,36.76
2017-01-25T09:54:57.589Z,36.57
2017-01-25T09:55:57.622Z,36.76
2017-01-25T09:56:57.643Z,37.05
2017-01-25T09:57:58.311Z,36.66
2017-01-25T09:58:57.694Z,37.15
2017-01-25T09:59:57.718Z,37.05
2017-01-25T10:00:58.138Z,36.76
2017-01-25T10:01:58.162Z,36.66
2017-01-25T10:02:58.438Z,36.86
2017-01-25T10:03:58.214Z,37.15
2017-01-25T10:04:57.839Z,37.15
2017-01-25T10:05:57.862Z,36.86
2017-01-25T10:06:58.287Z,36.66
2017-01-25T10:07:58.312Z,36.86
2017-01-25T10:08:57.940Z,36.86
2017-01-25T10:09:57.965Z,36.76
2017-01-25T10:10:58.390Z,36.95
2017-01-25T10:11:58.406Z,36.66
2017-01-25T10:12:58.043Z,36.86
2017-01-25T10:13:58.055Z,37.05
2017-01-25T10:14:58.488Z,37.05
2017-01-25T10:15:58.505Z,37.05
2017-01-25T10:16:58.530Z,36.95
2017-01-25T10:17:58.563Z,36.95
2017-01-25T10:19:30.296Z,36.95
2017-01-25T10:20:12.692Z,37.05
2017-01-25T10:21:12.339Z,37.05
2017-01-25T10:22:12.776Z,37.05
2017-01-25T10:23:25.921Z,36.95
2017-01-25T10:24:26.087Z,37.05
2017-01-25T10:25:25.721Z,36.95
2017-01-25T10:26:26.146Z,36.86
2017-01-25T10:27:25.773Z,36.76
2017-01-25T10:28:26.049Z,36.86
2017-01-25T10:29:25.818Z,36.66
2017-01-25T10:30:26.239Z,36.95
2017-01-25T10:31:25.865Z,36.47
2017-01-25T10:32:26.327Z,36.76
2017-01-25T10:33:26.169Z,36.57
2017-01-25T10:34:26.338Z,36.66
2017-01-25T10:35:25.967Z,36.76
2017-01-25T10:36:25.992Z,36.76
2017-01-25T10:37:26.412Z,36.76
2017-01-25T10:38:26.292Z,36.66
2017-01-25T10:39:26.457Z,36.76
2017-01-25T10:40:26.491Z,36.66
2017-01-25T10:41:26.510Z,36.57
2017-01-25T10:42:26.139Z,36.38
2017-01-25T10:43:26.562Z,36.57
2017-01-25T10:44:26.185Z,36.57
2017-01-25T10:45:26.609Z,36.57
2017-01-25T10:46:26.238Z,36.57
2017-01-25T10:47:26.263Z,36.47
2017-01-25T10:48:26.287Z,36.66
2017-01-25T10:49:26.312Z,36.47
2017-01-25T10:50:26.733Z,36.76
2017-01-25T10:51:26.366Z,36.66
2017-01-25T10:52:26.383Z,36.57
2017-01-25T10:53:26.412Z,36.57
2017-01-25T10:54:26.688Z,36.66
2017-01-25T10:55:26.467Z,36.57
2017-01-25T10:56:26.480Z,36.57
2017-01-25T10:57:26.906Z,36.66
2017-01-25T10:58:26.535Z,36.55
2017-01-25T10:59:26.811Z,36.57
2017-01-25T11:00:26.595Z,36.38
2017-01-25T11:01:26.998Z,36.57
2017-01-25T11:02:27.036Z,36.47
2017-01-25T11:03:27.050Z,36.57
2017-01-25T11:04:27.331Z,36.55
2017-01-25T11:05:26.703Z,36.38
2017-01-25T11:06:27.135Z,36.57
2017-01-25T11:07:26.757Z,36.57
2017-01-25T11:08:27.178Z,36.57
2017-01-25T11:09:27.457Z,36.55
2017-01-25T11:10:26.832Z,36.16
2017-01-25T11:11:26.856Z,36.07
2017-01-25T11:12:26.872Z,36.47
2017-01-25T11:13:26.906Z,36.38
2017-01-25T11:14:27.326Z,36.66
2017-01-25T11:15:27.350Z,36.36
2017-01-25T11:16:26.980Z,36.47
2017-01-25T11:17:27.004Z,36.07
2017-01-25T11:18:27.030Z,36.38
2017-01-25T11:19:27.054Z,36.57
2017-01-25T11:20:27.470Z,36.47
2017-01-25T11:21:27.104Z,36.57
2017-01-25T11:22:27.126Z,36.46
2017-01-25T11:23:27.549Z,36.16
2017-01-25T11:24:27.176Z,36.46
2017-01-25T11:25:27.202Z,36.47
2017-01-25T11:26:27.226Z,36.09
2017-01-25T11:27:27.648Z,36.46
2017-01-25T11:28:27.672Z,36.38
2017-01-25T11:29:27.701Z,36.38
2017-01-25T11:30:27.721Z,36.36
2017-01-25T11:31:27.742Z,36.36
2017-01-25T11:32:27.772Z,36.46
2017-01-25T11:33:27.397Z,36.65
2017-01-25T11:34:27.429Z,36.46
2017-01-25T11:35:27.845Z,36.16
2017-01-25T11:36:27.474Z,36.46
2017-01-25T11:37:27.890Z,36.36
2017-01-25T11:38:27.918Z,36.07
2017-01-25T11:39:27.940Z,36.26
2017-01-25T11:40:27.573Z,36.16
2017-01-25T11:41:27.994Z,36.36
2017-01-25T11:42:27.623Z,36.46
2017-01-25T11:43:27.643Z,36.36
2017-01-25T11:44:27.668Z,35.99
2017-01-25T11:45:28.344Z,35.99
2017-01-25T11:46:28.122Z,36.28
2017-01-25T11:47:27.750Z,36.28
2017-01-25T11:48:28.167Z,36.18
2017-01-25T11:49:28.192Z,36.28
2017-01-25T11:50:28.468Z,35.8
2017-01-25T11:51:28.242Z,35.89
2017-01-25T11:52:28.266Z,36.18
2017-01-25T11:53:27.910Z,36.18
2017-01-25T11:54:27.916Z,36.18
2017-01-25T11:55:27.948Z,36.28
2017-01-25T11:56:28.372Z,36.09
2017-01-25T11:57:28.393Z,36.28
2017-01-25T11:58:28.414Z,36.18
2017-01-25T11:59:28.439Z,36.09
2017-01-25T12:00:28.060Z,36.18
2017-01-25T12:01:28.488Z,36.09
2017-01-25T12:02:28.514Z,35.89
2017-01-25T12:03:28.141Z,35.99
2017-01-25T12:04:28.559Z,35.99
2017-01-25T12:05:28.195Z,35.71
2017-01-25T12:06:28.872Z,35.89
2017-01-25T12:07:28.633Z,35.89
2017-01-25T12:08:28.657Z,35.99
2017-01-25T12:09:28.687Z,35.89
2017-01-25T12:10:28.707Z,35.99
2017-01-25T12:11:29.235Z,36.09
2017-01-25T12:12:28.764Z,35.61
2017-01-25T12:13:28.389Z,35.61
2017-01-25T12:14:28.829Z,35.61
2017-01-25T12:15:28.835Z,35.61
2017-01-25T12:16:28.461Z,35.71
2017-01-25T12:17:28.494Z,35.51
2017-01-25T12:18:28.909Z,35.8
2017-01-25T12:19:28.933Z,35.71
2017-01-25T12:20:28.954Z,35.71
2017-01-25T12:21:28.979Z,35.61
2017-01-25T12:22:29.007Z,35.71
2017-01-25T12:23:28.636Z,35.51
2017-01-25T12:24:29.052Z,35.71
2017-01-25T12:25:28.694Z,35.32
2017-01-25T12:26:28.705Z,35.8
2017-01-25T12:27:29.130Z,35.61
2017-01-25T12:28:29.159Z,35.32
2017-01-25T12:29:29.184Z,35.32
2017-01-25T12:30:29.200Z,35.71
2017-01-25T12:31:29.233Z,35.71
2017-01-25T12:32:28.862Z,35.71
2017-01-25T12:33:29.278Z,35.61
2017-01-25T12:34:28.907Z,35.51
2017-01-25T12:35:28.935Z,35.61
2017-01-25T12:36:28.957Z,35.71
2017-01-25T12:37:29.385Z,35.61
2017-01-25T12:38:29.406Z,35.99
2017-01-25T12:39:29.430Z,35.61
2017-01-25T12:40:29.454Z,35.71
2017-01-25T12:41:29.479Z,35.71
2017-01-25T12:42:29.527Z,35.71
2017-01-25T12:43:29.529Z,35.8
2017-01-25T12:44:29.152Z,35.51
2017-01-25T12:45:29.183Z,35.51
2017-01-25T12:46:29.599Z,35.8
2017-01-25T12:47:29.876Z,35.61
2017-01-25T12:48:29.260Z,35.51
2017-01-25T12:49:29.677Z,35.51
2017-01-25T12:50:29.303Z,35.51
2017-01-25T12:51:29.738Z,35.51
2017-01-25T12:52:29.863Z,35.42
2017-01-25T12:53:29.378Z,35.71
2017-01-25T12:54:29.405Z,35.51
2017-01-25T12:55:29.826Z,35.51
2017-01-25T12:56:29.460Z,35.71